sensor_id;sensor_type;location;lat;lon;timestamp;P1;durP1;ratioP1;P2;durP2;ratioP2
54557;SDS011;40452;50.080;20.040;2022-10-31T06:26:47;16.30;;;10.55;;
54557;SDS011;40452;50.080;20.040;2022-10-31T06:29:12;18.25;;;9.77;;
54557;SDS011;40452;50.080;20.040;2022-10-31T06:31:38;13.30;;;9.10;;
54557;SDS011;40452;50.080;20.040;2022-10-31T06:34:03;17.50;;;9.45;;
54557;SDS011;40452;50.080;20.040;2022-10-31T06:36:29;13.25;;;9.15;;
54557;SDS011;40452;50.080;20.040;2022-10-31T06:38:54;17.05;;;9.60;;
54557;SDS011;40452;50.080;20.040;2022-10-31T06:41:19;15.98;;;8.80;;
54557;SDS011;40452;50.080;20.040;2022-10-31T06:43:46;16.30;;;9.43;;
54557;SDS011;40452;50.080;20.040;2022-10-31T06:46:12;15.05;;;9.52;;
54557;SDS011;40452;50.080;20.040;2022-10-31T06:48:37;17.35;;;9.45;;
54557;SDS011;40452;50.080;20.040;2022-10-31T06:51:04;16.45;;;9.63;;
54557;SDS011;40452;50.080;20.040;2022-10-31T06:53:30;14.98;;;8.82;;
54557;SDS011;40452;50.080;20.040;2022-10-31T06:55:56;13.35;;;8.82;;
54557;SDS011;40452;50.080;20.040;2022-10-31T06:58:21;14.88;;;9.23;;
54557;SDS011;40452;50.080;20.040;2022-10-31T07:00:47;14.70;;;9.15;;
54557;SDS011;40452;50.080;20.040;2022-10-31T07:03:13;15.52;;;8.70;;
54557;SDS011;40452;50.080;20.040;2022-10-31T07:05:40;14.35;;;9.00;;
54557;SDS011;40452;50.080;20.040;2022-10-31T07:08:07;15.98;;;8.93;;
54557;SDS011;40452;50.080;20.040;2022-10-31T07:10:38;13.65;;;8.95;;
54557;SDS011;40452;50.080;20.040;2022-10-31T07:13:05;15.93;;;10.02;;
54557;SDS011;40452;50.080;20.040;2022-10-31T07:15:34;16.77;;;10.27;;
54557;SDS011;40452;50.080;20.040;2022-10-31T07:18:02;15.73;;;9.27;;
54557;SDS011;40452;50.080;20.040;2022-10-31T07:20:29;14.20;;;9.35;;
54557;SDS011;40452;50.080;20.040;2022-10-31T07:22:55;16.15;;;9.52;;
54557;SDS011;40452;50.080;20.040;2022-10-31T07:25:20;17.63;;;10.05;;
54557;SDS011;40452;50.080;20.040;2022-10-31T07:27:46;19.70;;;10.50;;
54557;SDS011;40452;50.080;20.040;2022-10-31T07:30:12;17.98;;;10.18;;
54557;SDS011;40452;50.080;20.040;2022-10-31T07:32:43;18.70;;;10.55;;
54557;SDS011;40452;50.080;20.040;2022-10-31T07:35:19;18.58;;;9.88;;
54557;SDS011;40452;50.080;20.040;2022-10-31T07:37:46;19.17;;;9.68;;
54557;SDS011;40452;50.080;20.040;2022-10-31T07:40:12;19.98;;;9.82;;
54557;SDS011;40452;50.080;20.040;2022-10-31T07:42:38;16.52;;;9.63;;
54557;SDS011;40452;50.080;20.040;2022-10-31T07:45:11;16.92;;;10.15;;
54557;SDS011;40452;50.080;20.040;2022-10-31T07:47:41;17.07;;;9.07;;
54557;SDS011;40452;50.080;20.040;2022-10-31T07:50:07;15.00;;;9.60;;
54557;SDS011;40452;50.080;20.040;2022-10-31T07:52:34;17.45;;;9.10;;
54557;SDS011;40452;50.080;20.040;2022-10-31T07:55:00;17.38;;;9.13;;
54557;SDS011;40452;50.080;20.040;2022-10-31T07:57:25;14.32;;;9.25;;
54557;SDS011;40452;50.080;20.040;2022-10-31T07:59:51;20.17;;;9.63;;
54557;SDS011;40452;50.080;20.040;2022-10-31T08:02:16;18.48;;;9.38;;
54557;SDS011;40452;50.080;20.040;2022-10-31T08:04:42;16.25;;;8.98;;
54557;SDS011;40452;50.080;20.040;2022-10-31T08:07:07;16.20;;;9.07;;
54557;SDS011;40452;50.080;20.040;2022-10-31T08:09:33;15.95;;;8.73;;
54557;SDS011;40452;50.080;20.040;2022-10-31T08:11:58;18.33;;;8.98;;
54557;SDS011;40452;50.080;20.040;2022-10-31T08:14:24;14.43;;;9.75;;
54557;SDS011;40452;50.080;20.040;2022-10-31T08:16:49;16.20;;;9.27;;
54557;SDS011;40452;50.080;20.040;2022-10-31T08:19:16;17.42;;;9.18;;
54557;SDS011;40452;50.080;20.040;2022-10-31T08:21:42;17.45;;;9.98;;
54557;SDS011;40452;50.080;20.040;2022-10-31T08:24:07;16.58;;;9.82;;
54557;SDS011;40452;50.080;20.040;2022-10-31T08:26:33;16.92;;;8.98;;
54557;SDS011;40452;50.080;20.040;2022-10-31T08:28:58;16.13;;;8.95;;
54557;SDS011;40452;50.080;20.040;2022-10-31T08:31:24;18.30;;;9.88;;
54557;SDS011;40452;50.080;20.040;2022-10-31T08:33:52;19.23;;;10.70;;
54557;SDS011;40452;50.080;20.040;2022-10-31T08:36:18;15.68;;;9.52;;
54557;SDS011;40452;50.080;20.040;2022-10-31T08:38:44;15.70;;;9.32;;
54557;SDS011;40452;50.080;20.040;2022-10-31T08:41:11;15.25;;;9.52;;
54557;SDS011;40452;50.080;20.040;2022-10-31T08:43:37;13.63;;;9.00;;
54557;SDS011;40452;50.080;20.040;2022-10-31T08:46:02;16.35;;;9.13;;
54557;SDS011;40452;50.080;20.040;2022-10-31T08:48:28;20.23;;;9.85;;
54557;SDS011;40452;50.080;20.040;2022-10-31T08:50:55;16.02;;;9.55;;
54557;SDS011;40452;50.080;20.040;2022-10-31T08:53:23;16.45;;;9.07;;
54557;SDS011;40452;50.080;20.040;2022-10-31T08:55:49;18.40;;;9.02;;
54557;SDS011;40452;50.080;20.040;2022-10-31T08:58:18;15.60;;;9.20;;
54557;SDS011;40452;50.080;20.040;2022-10-31T09:00:45;14.05;;;9.00;;
54557;SDS011;40452;50.080;20.040;2022-10-31T09:03:13;16.15;;;9.02;;
54557;SDS011;40452;50.080;20.040;2022-10-31T09:05:43;17.42;;;8.70;;
54557;SDS011;40452;50.080;20.040;2022-10-31T09:08:08;14.57;;;8.68;;
54557;SDS011;40452;50.080;20.040;2022-10-31T09:10:35;13.68;;;8.90;;
54557;SDS011;40452;50.080;20.040;2022-10-31T09:13:05;13.95;;;8.93;;
54557;SDS011;40452;50.080;20.040;2022-10-31T09:15:37;18.42;;;9.48;;
54557;SDS011;40452;50.080;20.040;2022-10-31T09:18:04;14.55;;;8.77;;
54557;SDS011;40452;50.080;20.040;2022-10-31T09:20:31;15.15;;;8.40;;
54557;SDS011;40452;50.080;20.040;2022-10-31T09:22:59;13.73;;;8.30;;
54557;SDS011;40452;50.080;20.040;2022-10-31T09:25:26;10.85;;;7.80;;
54557;SDS011;40452;50.080;20.040;2022-10-31T09:27:56;14.95;;;8.10;;
54557;SDS011;40452;50.080;20.040;2022-10-31T09:30:22;15.40;;;8.25;;
54557;SDS011;40452;50.080;20.040;2022-10-31T09:32:54;13.65;;;8.68;;
54557;SDS011;40452;50.080;20.040;2022-10-31T09:35:20;12.45;;;8.05;;
54557;SDS011;40452;50.080;20.040;2022-10-31T09:37:46;15.73;;;7.75;;
54557;SDS011;40452;50.080;20.040;2022-10-31T09:40:11;17.17;;;8.35;;
54557;SDS011;40452;50.080;20.040;2022-10-31T09:42:43;14.95;;;8.73;;
54557;SDS011;40452;50.080;20.040;2022-10-31T09:45:22;17.52;;;9.30;;
54557;SDS011;40452;50.080;20.040;2022-10-31T09:50:36;13.52;;;8.30;;
54557;SDS011;40452;50.080;20.040;2022-10-31T09:53:17;14.77;;;8.68;;
54557;SDS011;40452;50.080;20.040;2022-10-31T09:55:53;17.60;;;8.75;;
54557;SDS011;40452;50.080;20.040;2022-10-31T09:58:25;13.57;;;8.05;;
54557;SDS011;40452;50.080;20.040;2022-10-31T10:00:53;13.50;;;8.48;;
54557;SDS011;40452;50.080;20.040;2022-10-31T10:06:15;17.70;;;9.18;;
54557;SDS011;40452;50.080;20.040;2022-10-31T10:08:44;18.83;;;10.93;;
54557;SDS011;40452;50.080;20.040;2022-10-31T10:14:04;17.23;;;9.57;;
54557;SDS011;40452;50.080;20.040;2022-10-31T10:22:36;18.10;;;9.35;;
54557;SDS011;40452;50.080;20.040;2022-10-31T10:30:48;11.93;;;8.27;;
54557;SDS011;40452;50.080;20.040;2022-10-31T10:33:23;13.53;;;8.30;;
54557;SDS011;40452;50.080;20.040;2022-10-31T10:36:05;14.73;;;8.30;;
54557;SDS011;40452;50.080;20.040;2022-10-31T10:38:53;16.80;;;8.40;;
54557;SDS011;40452;50.080;20.040;2022-10-31T10:41:24;14.52;;;8.00;;
54557;SDS011;40452;50.080;20.040;2022-10-31T10:49:17;19.40;;;8.27;;
54557;SDS011;40452;50.080;20.040;2022-10-31T10:51:58;13.45;;;7.68;;
54557;SDS011;40452;50.080;20.040;2022-10-31T10:57:41;16.98;;;8.35;;
54557;SDS011;40452;50.080;20.040;2022-10-31T11:02:43;13.98;;;7.88;;
54557;SDS011;40452;50.080;20.040;2022-10-31T11:05:14;12.93;;;7.20;;
54557;SDS011;40452;50.080;20.040;2022-10-31T11:08:04;13.18;;;7.68;;
54557;SDS011;40452;50.080;20.040;2022-10-31T11:10:31;14.68;;;7.38;;
54557;SDS011;40452;50.080;20.040;2022-10-31T11:15:51;11.02;;;7.10;;
54557;SDS011;40452;50.080;20.040;2022-10-31T11:18:29;12.52;;;6.30;;
54557;SDS011;40452;50.080;20.040;2022-10-31T11:20:58;13.75;;;7.40;;
54557;SDS011;40452;50.080;20.040;2022-10-31T11:23:28;12.02;;;7.30;;
54557;SDS011;40452;50.080;20.040;2022-10-31T11:25:55;11.02;;;6.65;;
54557;SDS011;40452;50.080;20.040;2022-10-31T11:28:21;12.55;;;7.28;;
54557;SDS011;40452;50.080;20.040;2022-10-31T11:31:19;10.90;;;6.47;;
54557;SDS011;40452;50.080;20.040;2022-10-31T11:33:51;13.55;;;7.38;;
54557;SDS011;40452;50.080;20.040;2022-10-31T11:36:27;20.88;;;8.77;;
54557;SDS011;40452;50.080;20.040;2022-10-31T11:38:55;19.67;;;9.73;;
54557;SDS011;40452;50.080;20.040;2022-10-31T11:41:25;16.83;;;8.95;;
54557;SDS011;40452;50.080;20.040;2022-10-31T11:43:57;14.90;;;9.43;;
54557;SDS011;40452;50.080;20.040;2022-10-31T11:49:04;19.95;;;10.65;;
54557;SDS011;40452;50.080;20.040;2022-10-31T11:51:36;20.70;;;12.23;;
54557;SDS011;40452;50.080;20.040;2022-10-31T11:54:02;21.73;;;11.90;;
54557;SDS011;40452;50.080;20.040;2022-10-31T11:56:41;20.42;;;9.82;;
54557;SDS011;40452;50.080;20.040;2022-10-31T11:59:24;19.63;;;10.38;;
54557;SDS011;40452;50.080;20.040;2022-10-31T12:01:58;23.90;;;9.63;;
54557;SDS011;40452;50.080;20.040;2022-10-31T12:04:34;19.55;;;9.40;;
54557;SDS011;40452;50.080;20.040;2022-10-31T12:07:05;13.23;;;8.85;;
54557;SDS011;40452;50.080;20.040;2022-10-31T12:09:33;16.77;;;9.02;;
54557;SDS011;40452;50.080;20.040;2022-10-31T12:23:05;20.33;;;8.95;;
54557;SDS011;40452;50.080;20.040;2022-10-31T12:25:42;16.95;;;8.20;;
54557;SDS011;40452;50.080;20.040;2022-10-31T12:28:51;16.77;;;8.30;;
54557;SDS011;40452;50.080;20.040;2022-10-31T12:34:32;16.00;;;7.70;;
54557;SDS011;40452;50.080;20.040;2022-10-31T12:43:01;16.20;;;8.45;;
54557;SDS011;40452;50.080;20.040;2022-10-31T12:50:51;14.70;;;7.93;;
54557;SDS011;40452;50.080;20.040;2022-10-31T12:53:37;20.02;;;7.97;;
54557;SDS011;40452;50.080;20.040;2022-10-31T12:56:10;18.95;;;8.43;;
54557;SDS011;40452;50.080;20.040;2022-10-31T12:59:09;12.02;;;7.50;;
54557;SDS011;40452;50.080;20.040;2022-10-31T13:04:38;15.25;;;7.63;;
54557;SDS011;40452;50.080;20.040;2022-10-31T13:07:15;18.23;;;8.32;;
54557;SDS011;40452;50.080;20.040;2022-10-31T13:12:37;21.08;;;8.13;;
54557;SDS011;40452;50.080;20.040;2022-10-31T13:15:05;25.13;;;8.07;;
54557;SDS011;40452;50.080;20.040;2022-10-31T13:17:38;17.27;;;8.07;;
54557;SDS011;40452;50.080;20.040;2022-10-31T13:20:13;18.13;;;7.25;;
54557;SDS011;40452;50.080;20.040;2022-10-31T13:22:45;19.70;;;7.57;;
54557;SDS011;40452;50.080;20.040;2022-10-31T13:25:22;15.23;;;7.35;;
54557;SDS011;40452;50.080;20.040;2022-10-31T13:28:02;13.52;;;7.00;;
54557;SDS011;40452;50.080;20.040;2022-10-31T13:30:36;15.60;;;7.05;;
54557;SDS011;40452;50.080;20.040;2022-10-31T13:35:46;14.38;;;7.20;;
54557;SDS011;40452;50.080;20.040;2022-10-31T13:41:41;13.70;;;6.90;;
54557;SDS011;40452;50.080;20.040;2022-10-31T13:46:41;13.20;;;6.70;;
54557;SDS011;40452;50.080;20.040;2022-10-31T13:57:06;12.18;;;6.78;;
54557;SDS011;40452;50.080;20.040;2022-10-31T13:59:45;19.30;;;7.93;;
54557;SDS011;40452;50.080;20.040;2022-10-31T14:02:35;13.57;;;6.82;;
54557;SDS011;40452;50.080;20.040;2022-10-31T14:05:23;14.23;;;6.85;;
54557;SDS011;40452;50.080;20.040;2022-10-31T14:07:53;12.40;;;6.45;;
54557;SDS011;40452;50.080;20.040;2022-10-31T14:10:25;13.48;;;6.68;;
54557;SDS011;40452;50.080;20.040;2022-10-31T14:12:53;16.27;;;7.45;;
54557;SDS011;40452;50.080;20.040;2022-10-31T14:15:29;15.68;;;8.50;;
54557;SDS011;40452;50.080;20.040;2022-10-31T14:17:57;19.13;;;8.50;;
54557;SDS011;40452;50.080;20.040;2022-10-31T14:20:36;21.83;;;9.05;;
54557;SDS011;40452;50.080;20.040;2022-10-31T14:26:17;18.38;;;8.18;;
54557;SDS011;40452;50.080;20.040;2022-10-31T14:28:42;23.08;;;8.52;;
54557;SDS011;40452;50.080;20.040;2022-10-31T14:31:28;20.33;;;8.07;;
54557;SDS011;40452;50.080;20.040;2022-10-31T14:34:37;16.15;;;8.43;;
54557;SDS011;40452;50.080;20.040;2022-10-31T18:33:03;31.90;;;12.75;;
54557;SDS011;40452;50.080;20.040;2022-10-31T18:35:28;29.30;;;13.20;;
54557;SDS011;40452;50.080;20.040;2022-10-31T18:37:55;31.25;;;12.90;;
54557;SDS011;40452;50.080;20.040;2022-10-31T18:40:21;29.75;;;12.38;;
54557;SDS011;40452;50.080;20.040;2022-10-31T18:42:47;27.52;;;12.68;;
54557;SDS011;40452;50.080;20.040;2022-10-31T18:45:12;26.77;;;12.18;;
54557;SDS011;40452;50.080;20.040;2022-10-31T18:47:38;26.90;;;12.73;;
54557;SDS011;40452;50.080;20.040;2022-10-31T18:50:03;26.50;;;13.18;;
54557;SDS011;40452;50.080;20.040;2022-10-31T18:52:30;25.73;;;12.63;;
54557;SDS011;40452;50.080;20.040;2022-10-31T18:54:56;27.27;;;13.48;;
54557;SDS011;40452;50.080;20.040;2022-10-31T18:57:21;27.50;;;13.60;;
54557;SDS011;40452;50.080;20.040;2022-10-31T18:59:47;34.10;;;14.27;;
54557;SDS011;40452;50.080;20.040;2022-10-31T19:02:12;33.97;;;14.52;;
54557;SDS011;40452;50.080;20.040;2022-10-31T19:04:41;32.63;;;15.07;;
54557;SDS011;40452;50.080;20.040;2022-10-31T19:07:07;30.75;;;15.25;;
54557;SDS011;40452;50.080;20.040;2022-10-31T19:09:33;34.10;;;15.35;;
54557;SDS011;40452;50.080;20.040;2022-10-31T19:11:58;32.38;;;14.85;;
54557;SDS011;40452;50.080;20.040;2022-10-31T19:14:24;29.30;;;14.63;;
54557;SDS011;40452;50.080;20.040;2022-10-31T19:16:49;31.17;;;15.30;;
54557;SDS011;40452;50.080;20.040;2022-10-31T19:19:15;31.90;;;15.13;;
54557;SDS011;40452;50.080;20.040;2022-10-31T19:21:40;29.90;;;15.52;;
54557;SDS011;40452;50.080;20.040;2022-10-31T19:24:07;28.33;;;14.95;;
54557;SDS011;40452;50.080;20.040;2022-10-31T19:26:33;26.00;;;15.13;;
54557;SDS011;40452;50.080;20.040;2022-10-31T19:28:59;34.15;;;16.35;;
54557;SDS011;40452;50.080;20.040;2022-10-31T19:31:24;31.27;;;15.68;;
54557;SDS011;40452;50.080;20.040;2022-10-31T19:33:50;28.08;;;15.90;;
54557;SDS011;40452;50.080;20.040;2022-10-31T19:36:16;32.72;;;17.25;;
54557;SDS011;40452;50.080;20.040;2022-10-31T19:38:43;29.33;;;16.30;;
54557;SDS011;40452;50.080;20.040;2022-10-31T19:41:18;29.45;;;16.13;;
54557;SDS011;40452;50.080;20.040;2022-10-31T19:43:46;35.17;;;18.70;;
54557;SDS011;40452;50.080;20.040;2022-10-31T19:46:12;34.75;;;20.38;;
54557;SDS011;40452;50.080;20.040;2022-10-31T19:48:39;44.83;;;19.10;;
54557;SDS011;40452;50.080;20.040;2022-10-31T19:51:10;57.38;;;20.50;;
54557;SDS011;40452;50.080;20.040;2022-10-31T19:53:43;40.90;;;21.08;;
54557;SDS011;40452;50.080;20.040;2022-10-31T19:56:16;42.10;;;19.98;;
54557;SDS011;40452;50.080;20.040;2022-10-31T19:58:43;49.45;;;20.75;;
54557;SDS011;40452;50.080;20.040;2022-10-31T20:01:20;37.95;;;19.25;;
54557;SDS011;40452;50.080;20.040;2022-10-31T20:03:47;45.58;;;20.30;;
54557;SDS011;40452;50.080;20.040;2022-10-31T20:06:26;44.42;;;20.60;;
54557;SDS011;40452;50.080;20.040;2022-10-31T20:08:56;39.50;;;20.40;;
54557;SDS011;40452;50.080;20.040;2022-10-31T20:11:23;39.70;;;20.30;;
54557;SDS011;40452;50.080;20.040;2022-10-31T20:13:49;38.20;;;20.98;;
54557;SDS011;40452;50.080;20.040;2022-10-31T20:16:15;40.58;;;20.05;;
54557;SDS011;40452;50.080;20.040;2022-10-31T20:18:42;42.58;;;20.10;;
54557;SDS011;40452;50.080;20.040;2022-10-31T20:21:09;44.22;;;20.13;;
54557;SDS011;40452;50.080;20.040;2022-10-31T20:23:36;42.75;;;20.90;;
54557;SDS011;40452;50.080;20.040;2022-10-31T20:26:03;39.03;;;19.58;;
54557;SDS011;40452;50.080;20.040;2022-10-31T20:28:30;36.10;;;20.63;;
54557;SDS011;40452;50.080;20.040;2022-10-31T20:30:57;42.95;;;20.73;;
54557;SDS011;40452;50.080;20.040;2022-10-31T20:33:23;34.85;;;19.75;;
54557;SDS011;40452;50.080;20.040;2022-10-31T20:35:49;35.55;;;20.73;;
54557;SDS011;40452;50.080;20.040;2022-10-31T20:38:14;45.80;;;21.70;;
54557;SDS011;40452;50.080;20.040;2022-10-31T20:40:40;38.65;;;20.73;;
54557;SDS011;40452;50.080;20.040;2022-10-31T20:43:06;42.33;;;20.63;;
54557;SDS011;40452;50.080;20.040;2022-10-31T20:45:31;40.50;;;20.45;;
54557;SDS011;40452;50.080;20.040;2022-10-31T20:47:58;38.60;;;21.02;;
54557;SDS011;40452;50.080;20.040;2022-10-31T20:50:23;38.20;;;20.85;;
54557;SDS011;40452;50.080;20.040;2022-10-31T20:52:50;42.60;;;21.00;;
54557;SDS011;40452;50.080;20.040;2022-10-31T20:55:15;38.97;;;20.95;;
54557;SDS011;40452;50.080;20.040;2022-10-31T20:57:41;41.33;;;21.42;;
54557;SDS011;40452;50.080;20.040;2022-10-31T21:00:07;44.65;;;21.45;;
54557;SDS011;40452;50.080;20.040;2022-10-31T21:02:35;38.67;;;20.05;;
54557;SDS011;40452;50.080;20.040;2022-10-31T21:05:05;39.25;;;20.52;;
54557;SDS011;40452;50.080;20.040;2022-10-31T21:07:32;43.65;;;21.23;;
54557;SDS011;40452;50.080;20.040;2022-10-31T21:09:58;40.30;;;20.83;;
54557;SDS011;40452;50.080;20.040;2022-10-31T21:12:23;41.63;;;20.27;;
54557;SDS011;40452;50.080;20.040;2022-10-31T21:14:49;42.60;;;21.48;;
54557;SDS011;40452;50.080;20.040;2022-10-31T21:17:14;37.45;;;20.25;;
54557;SDS011;40452;50.080;20.040;2022-10-31T21:19:40;40.55;;;21.35;;
54557;SDS011;40452;50.080;20.040;2022-10-31T21:22:05;45.25;;;21.60;;
54557;SDS011;40452;50.080;20.040;2022-10-31T21:24:31;41.22;;;20.95;;
54557;SDS011;40452;50.080;20.040;2022-10-31T21:26:56;38.25;;;20.40;;
54557;SDS011;40452;50.080;20.040;2022-10-31T21:29:22;38.03;;;21.38;;
54557;SDS011;40452;50.080;20.040;2022-10-31T21:31:48;37.97;;;22.15;;
54557;SDS011;40452;50.080;20.040;2022-10-31T21:34:14;45.70;;;21.75;;
54557;SDS011;40452;50.080;20.040;2022-10-31T21:36:40;40.00;;;21.50;;
54557;SDS011;40452;50.080;20.040;2022-10-31T21:39:06;38.55;;;22.23;;
54557;SDS011;40452;50.080;20.040;2022-10-31T21:41:33;39.50;;;21.48;;
54557;SDS011;40452;50.080;20.040;2022-10-31T21:43:59;46.78;;;24.77;;
54557;SDS011;40452;50.080;20.040;2022-10-31T21:46:25;46.55;;;25.60;;
54557;SDS011;40452;50.080;20.040;2022-10-31T21:48:52;43.78;;;24.15;;
54557;SDS011;40452;50.080;20.040;2022-10-31T21:51:19;48.30;;;25.80;;
54557;SDS011;40452;50.080;20.040;2022-10-31T21:53:47;42.83;;;24.77;;
54557;SDS011;40452;50.080;20.040;2022-10-31T21:56:31;42.03;;;23.30;;
54557;SDS011;40452;50.080;20.040;2022-10-31T21:58:57;44.63;;;23.80;;
54557;SDS011;40452;50.080;20.040;2022-10-31T22:01:24;42.53;;;23.60;;
54557;SDS011;40452;50.080;20.040;2022-10-31T22:03:51;39.13;;;22.52;;
54557;SDS011;40452;50.080;20.040;2022-10-31T22:06:17;44.85;;;23.35;;
54557;SDS011;40452;50.080;20.040;2022-10-31T22:08:42;38.38;;;22.67;;
54557;SDS011;40452;50.080;20.040;2022-10-31T22:11:09;44.97;;;23.42;;
54557;SDS011;40452;50.080;20.040;2022-10-31T22:13:39;41.20;;;23.17;;
54557;SDS011;40452;50.080;20.040;2022-10-31T22:16:07;43.05;;;22.33;;
54557;SDS011;40452;50.080;20.040;2022-10-31T22:18:37;43.55;;;22.05;;
54557;SDS011;40452;50.080;20.040;2022-10-31T22:21:04;41.13;;;21.55;;
54557;SDS011;40452;50.080;20.040;2022-10-31T22:23:30;36.85;;;22.13;;
54557;SDS011;40452;50.080;20.040;2022-10-31T22:26:00;42.13;;;22.13;;
54557;SDS011;40452;50.080;20.040;2022-10-31T22:28:28;38.30;;;22.13;;
54557;SDS011;40452;50.080;20.040;2022-10-31T22:30:54;43.03;;;22.42;;
54557;SDS011;40452;50.080;20.040;2022-10-31T22:33:20;43.92;;;22.00;;
54557;SDS011;40452;50.080;20.040;2022-10-31T22:35:45;40.38;;;21.52;;
54557;SDS011;40452;50.080;20.040;2022-10-31T22:38:11;43.17;;;21.85;;
54557;SDS011;40452;50.080;20.040;2022-10-31T22:40:36;37.00;;;21.45;;
54557;SDS011;40452;50.080;20.040;2022-10-31T22:43:02;40.40;;;21.80;;
54557;SDS011;40452;50.080;20.040;2022-10-31T22:45:27;42.30;;;21.88;;
54557;SDS011;40452;50.080;20.040;2022-10-31T22:47:53;37.97;;;20.98;;
54557;SDS011;40452;50.080;20.040;2022-10-31T22:50:18;38.55;;;21.45;;
54557;SDS011;40452;50.080;20.040;2022-10-31T22:52:44;37.80;;;21.98;;
54557;SDS011;40452;50.080;20.040;2022-10-31T22:55:09;42.17;;;21.73;;
54557;SDS011;40452;50.080;20.040;2022-10-31T22:57:35;39.33;;;21.48;;
54557;SDS011;40452;50.080;20.040;2022-10-31T23:00:00;37.65;;;20.98;;
54557;SDS011;40452;50.080;20.040;2022-10-31T23:02:26;38.20;;;20.80;;
54557;SDS011;40452;50.080;20.040;2022-10-31T23:04:52;37.60;;;20.58;;
